Flight Number: AVA1997 Duration: 2:00
Departure: Frankfurt am Main (EDDF) at 13:00 Distance: 550.168 Nm
Arrival: Olbia Costa Smeralda (LIEO) at 15:00 Equipment: B1900D

Weather Information
Frankfurt / M-Flughafen, Germany (EDDF) 50-03N 008-36E 113M Feb 27, 2024 - 12:20 PM EST / 2024.02.27 1720 UTC
Wind: from the NNE (020 degrees) at 9 MPH (8 KT):0
Visibility: greater than 7 mile(s):0 Temperature: 50 F (10 C) Dew Point: 39 F (4 C) Relative Humidity: 66% Pressure (altimeter): 29.97 in. Hg (1015 hPa)
ob: EDDF 271720Z AUTO 02008KT CAVOK 10/04 Q1015 NOSIG cycle: 17
Sunrise: 06:16 Sunset: 17:00 (UTC)

Olbia / Costa Smeralda, Italy (LIEO) 40-54N 009-31E 13M Feb 27, 2024 - 12:20 PM EST / 2024.02.27 1720 UTC
Wind: from the SW (230 degrees) at 9 MPH (8 KT):0
Visibility: greater than 7 mile(s):0
Sky conditions: mostly cloudy Temperature: 55 F (13 C) Dew Point: 48 F (9 C) Relative Humidity: 76% Pressure (altimeter): 29.65 in. Hg (1004 hPa)
ob: LIEO 271720Z 23008KT 9999 FEW030 BKN060 13/09 Q1004 cycle: 17
Sunrise: 06:02 Sunset: 17:07 (UTC)

TAF:2024/02/27 12:22 TAF LIEO 271100Z 2712/2812 22012KT 9999 SCT025 TEMPO 2712/2716 4000 RA TEMPO 2804/2812 4000 SHRA BECMG 2806/2809 04012KT

Previous Pireps for this route
Date Flightnr Aircraft Flight time Fuel used Landing rate On time
2020-04-06AVA11196B73701.499548-240No
2021-05-12AVA11196B73701.399048-270No
2022-06-20AVA11196B73701.439226-248Yes
(pireps marked green are flown by you)

Route map